MMCU/CUU METAR and TAF weather

Enter ICAO airport designator
Station Type Date Time Source
MMCU METAR 2020/09/19 01:41 UTC NOAA

MMCU 190141Z 03005KT 10SM FEW030 22/10 A3021 RMK 8/400


Station Type Date Time Source
MMCU Decoded METAR 2020/09/19 01:41 UTC NOAA

Chihuahua International Airport, Mexico (MMCU) 28-42N 105-58W
Sep 18, 2020 - 09:41 PM EDT / 2020.09.19 0141 UTC
Wind: from the NNE (030 degrees) at 6 MPH (5 KT):0
Visibility: 10 mile(s):0
Sky conditions: mostly clear
Temperature: 71 F (22 C)
Dew Point: 50 F (10 C)
Relative Humidity: 46%
Pressure (altimeter): 30.21 in. Hg (1023 hPa)
ob: MMCU 190141Z 03005KT 10SM FEW030 22/10 A3021 RMK 8/400
cycle: 1

Station Type Date Time Source
MMCU TAF 2020/09/18 18:36 UTC NOAA

TAF MMCU 181733Z 1818/1918 04015KT P6SM BKN040
BECMG 1900/1901 00000KT
FM191500 12010KT P6SM SCT030

Example: see airport list